createdAt,value
2023-01-10T00:00:35.466Z,54.6
2023-01-10T00:01:35.872Z,55.2
2023-01-10T00:02:35.658Z,55.3
2023-01-10T00:04:35.696Z,54.4
2023-01-10T00:05:35.931Z,54.6
2023-01-10T00:06:36.367Z,54.6
2023-01-10T00:08:35.119Z,54.9
2023-01-10T00:09:35.109Z,54.4
2023-01-10T00:10:35.754Z,54.9
2023-01-10T00:11:35.097Z,54.9
2023-01-10T00:12:35.094Z,54.9
2023-01-10T00:13:35.643Z,54.9
2023-01-10T00:14:35.191Z,54.7
2023-01-10T00:15:35.791Z,54.9
2023-01-10T00:16:35.813Z,55.1
2023-01-10T00:17:35.091Z,55.3
2023-01-10T00:18:35.877Z,54.8
2023-01-10T00:19:35.445Z,54.3
2023-01-10T00:20:35.088Z,54.6
2023-01-10T00:21:35.227Z,54.9
2023-01-10T00:22:35.101Z,54.9
2023-01-10T00:23:35.099Z,54.3
2023-01-10T00:26:35.882Z,54.6
2023-01-10T00:27:35.096Z,54.7
2023-01-10T00:28:35.551Z,55.1
2023-01-10T00:29:35.658Z,55.2
2023-01-10T00:30:35.127Z,55.2
2023-01-10T00:31:35.157Z,55.1
2023-01-10T00:32:35.548Z,55.1
2023-01-10T00:33:35.124Z,54.7
2023-01-10T00:34:35.735Z,54.4
2023-01-10T00:35:35.835Z,54.6
2023-01-10T00:36:35.531Z,54.5
2023-01-10T00:37:35.179Z,55.1
2023-01-10T00:38:35.408Z,55.1
2023-01-10T00:39:35.134Z,55
2023-01-10T00:40:35.106Z,54.5
2023-01-10T00:41:35.096Z,54.8
2023-01-10T00:42:35.698Z,54.6
2023-01-10T00:43:35.096Z,54.5
2023-01-10T00:44:35.647Z,54.3
2023-01-10T00:48:35.660Z,55.4
2023-01-10T00:50:35.094Z,55.3
2023-01-10T00:51:35.093Z,54.8
2023-01-10T00:52:35.207Z,55.4
2023-01-10T00:53:35.099Z,55.2
2023-01-10T00:54:35.121Z,55.2
2023-01-10T00:55:35.106Z,55.2
2023-01-10T00:56:35.276Z,55.4
2023-01-10T00:57:35.575Z,55.2
2023-01-10T00:58:35.095Z,55.1
2023-01-10T00:59:35.442Z,54.8
2023-01-10T01:00:35.139Z,54.5
2023-01-10T01:01:35.457Z,54.6
2023-01-10T01:02:35.135Z,55.5
2023-01-10T01:03:35.526Z,55.2
2023-01-10T01:04:35.452Z,54.7
2023-01-10T01:05:35.094Z,54.7
2023-01-10T01:06:35.773Z,54
2023-01-10T01:07:35.103Z,54.1
2023-01-10T01:08:35.411Z,54.6
2023-01-10T01:09:35.159Z,54.8
2023-01-10T01:10:35.124Z,55.5
2023-01-10T01:11:35.094Z,55.3
2023-01-10T01:12:35.609Z,55.7
2023-01-10T01:13:35.111Z,56
2023-01-10T01:14:35.389Z,55.9
2023-01-10T01:15:35.418Z,56.3
2023-01-10T01:16:35.099Z,55.1
2023-01-10T01:17:35.679Z,55.2
2023-01-10T01:18:35.468Z,55.2
2023-01-10T01:19:35.582Z,55.5
2023-01-10T01:20:35.141Z,54.7
2023-01-10T01:21:35.396Z,55.7
2023-01-10T01:22:35.374Z,56.4
2023-01-10T01:23:35.107Z,56.3
2023-01-10T01:24:35.103Z,55.7
2023-01-10T01:25:35.821Z,56.3
2023-01-10T01:26:35.098Z,55.7
2023-01-10T01:27:35.843Z,55.8
2023-01-10T01:28:35.417Z,55.6
2023-01-10T01:29:42.902Z,55.8
2023-01-10T01:32:35.104Z,55.2
2023-01-10T01:33:35.107Z,54.7
2023-01-10T01:34:35.972Z,54.9
2023-01-10T01:35:35.748Z,55.3
2023-01-10T01:36:36.021Z,55.2
2023-01-10T01:37:35.237Z,55.1
2023-01-10T01:38:35.107Z,55.4
2023-01-10T01:39:35.464Z,55
2023-01-10T01:40:35.993Z,55.2
2023-01-10T01:41:35.097Z,55.3
2023-01-10T01:42:35.580Z,55.5
2023-01-10T01:43:35.746Z,55.4
2023-01-10T01:44:35.706Z,55.5
2023-01-10T01:45:35.283Z,55.1
2023-01-10T01:46:35.211Z,54.8
2023-01-10T01:47:35.108Z,54.3
2023-01-10T01:48:35.830Z,55
2023-01-10T01:49:35.117Z,54.5
2023-01-10T01:50:35.678Z,54.3
2023-01-10T01:51:35.849Z,54.2
2023-01-10T01:52:35.353Z,53.9
2023-01-10T01:53:35.112Z,54.2
2023-01-10T01:54:35.095Z,54.6
2023-01-10T01:55:35.550Z,54.4
2023-01-10T01:56:35.622Z,54.3
2023-01-10T01:57:35.315Z,54.4
2023-01-10T01:58:36.032Z,54.1
2023-01-10T01:59:35.109Z,54
2023-01-10T02:01:35.899Z,53.9
2023-01-10T02:02:35.159Z,54
2023-01-10T02:03:35.680Z,54.2
2023-01-10T02:06:38.683Z,54.5
2023-01-10T02:07:38.661Z,54.4
2023-01-10T02:08:38.671Z,54.2
2023-01-10T02:09:38.662Z,54.5
2023-01-10T02:11:38.699Z,54.1
2023-01-10T02:12:38.685Z,54.7
2023-01-10T02:13:38.654Z,54.1
2023-01-10T02:14:38.673Z,53.8
2023-01-10T02:15:38.744Z,54.1
2023-01-10T02:16:38.697Z,54
2023-01-10T02:17:38.662Z,54.3
2023-01-10T02:18:38.653Z,54.4
2023-01-10T02:19:38.655Z,55
2023-01-10T02:20:38.655Z,54.9
2023-01-10T02:21:38.647Z,54.5
2023-01-10T02:22:38.657Z,54.6
2023-01-10T02:23:38.669Z,54.6
2023-01-10T02:25:38.664Z,54.4
2023-01-10T02:26:38.665Z,53.6
2023-01-10T02:27:38.651Z,53.3
2023-01-10T02:28:38.674Z,53.8
2023-01-10T02:29:38.659Z,54.4
2023-01-10T02:30:38.684Z,53.7
2023-01-10T02:31:38.716Z,53.9
2023-01-10T02:32:45.844Z,54.4
2023-01-10T02:33:38.654Z,54.1
2023-01-10T02:37:38.714Z,53.9
2023-01-10T02:38:48.931Z,53.1
2023-01-10T02:39:48.937Z,53
2023-01-10T02:40:48.952Z,53.5
2023-01-10T02:41:38.668Z,53.5
2023-01-10T02:42:38.665Z,53.4
2023-01-10T02:43:38.654Z,53.5
2023-01-10T02:44:38.665Z,53.3
2023-01-10T02:45:38.658Z,54
2023-01-10T02:47:38.673Z,53.2
2023-01-10T02:49:38.658Z,53.5
2023-01-10T02:50:38.658Z,54.1
2023-01-10T02:51:38.671Z,54.3
2023-01-10T02:52:38.663Z,54.5
2023-01-10T02:53:38.662Z,54.4
2023-01-10T02:54:38.658Z,54.9
2023-01-10T02:55:38.667Z,54.5
2023-01-10T02:56:38.661Z,54.6
2023-01-10T02:57:38.664Z,54.4
2023-01-10T02:58:38.727Z,54.5
2023-01-10T02:59:38.658Z,54.3
2023-01-10T03:00:38.657Z,54.1
2023-01-10T03:01:38.794Z,54.4
2023-01-10T03:02:38.658Z,54.3
2023-01-10T03:04:38.697Z,53.8
2023-01-10T03:06:38.671Z,54
2023-01-10T03:07:38.657Z,54.1
2023-01-10T03:08:38.684Z,53.9
2023-01-10T03:09:38.666Z,53.8
2023-01-10T03:10:38.663Z,54.2
2023-01-10T03:11:38.652Z,54
2023-01-10T03:12:38.655Z,54.3
2023-01-10T03:13:38.659Z,54.9
2023-01-10T03:15:38.660Z,53.9
2023-01-10T03:16:38.674Z,53.7
2023-01-10T03:17:38.656Z,54.1
2023-01-10T03:18:38.657Z,53.9
2023-01-10T03:19:38.667Z,54.3
2023-01-10T03:20:38.662Z,54.2
2023-01-10T03:21:38.662Z,54.3
2023-01-10T03:22:38.662Z,54.1
2023-01-10T03:23:38.665Z,54.4
2023-01-10T03:24:38.661Z,54
2023-01-10T03:25:38.655Z,54.2
2023-01-10T03:26:38.672Z,54.5
2023-01-10T03:28:38.745Z,53.5
2023-01-10T03:29:38.663Z,53.5
2023-01-10T03:30:38.658Z,54.1
2023-01-10T03:31:38.699Z,54.1
2023-01-10T03:33:38.699Z,54.6
2023-01-10T03:35:38.831Z,54.6
2023-01-10T03:36:38.659Z,54.9
2023-01-10T03:37:38.661Z,54.6
2023-01-10T03:38:38.671Z,54.5
2023-01-10T03:39:38.692Z,54.2
2023-01-10T03:40:38.664Z,54.4
2023-01-10T03:41:38.675Z,53.9
2023-01-10T03:42:38.670Z,53.8
2023-01-10T03:44:38.663Z,53.3
2023-01-10T03:48:38.661Z,53.7
2023-01-10T03:49:38.657Z,54.3
2023-01-10T03:50:38.659Z,53.4
2023-01-10T03:51:38.665Z,53.5
2023-01-10T03:52:38.672Z,53.5
2023-01-10T03:53:38.663Z,54.5
2023-01-10T03:54:38.671Z,53.9
2023-01-10T03:55:38.665Z,53.8
2023-01-10T03:56:38.671Z,53.6
2023-01-10T03:57:38.669Z,54
2023-01-10T03:58:38.662Z,53.9
2023-01-10T03:59:38.672Z,54
2023-01-10T04:00:38.660Z,54.3
2023-01-10T04:01:38.810Z,53.8
2023-01-10T04:02:38.665Z,53.9
2023-01-10T04:03:38.725Z,53.6
2023-01-10T04:04:38.676Z,53.1
2023-01-10T04:05:38.658Z,53.2
2023-01-10T04:06:38.663Z,53.1
2023-01-10T04:07:38.675Z,53.4
2023-01-10T04:08:38.667Z,53.4
2023-01-10T04:09:38.701Z,53.5
2023-01-10T04:10:38.690Z,53.6
2023-01-10T04:11:38.672Z,53.9
2023-01-10T04:12:38.667Z,53.6
2023-01-10T04:13:38.672Z,53.5
2023-01-10T04:14:38.683Z,53.8
2023-01-10T04:15:38.661Z,54
2023-01-10T04:16:38.663Z,54
2023-01-10T04:17:38.674Z,54.1
2023-01-10T04:18:38.665Z,54.3
2023-01-10T04:19:38.670Z,54.2
2023-01-10T04:20:38.660Z,54.1
2023-01-10T04:21:38.665Z,54.3
2023-01-10T04:22:38.680Z,54
2023-01-10T04:23:38.669Z,54.2
2023-01-10T04:24:38.672Z,53.8
2023-01-10T04:25:38.664Z,53.7
2023-01-10T04:26:38.675Z,53.7
2023-01-10T04:30:38.667Z,54.2
2023-01-10T04:31:38.737Z,53.9
2023-01-10T04:32:38.665Z,53.8
2023-01-10T04:33:38.667Z,54.1
2023-01-10T04:36:38.659Z,53.6
2023-01-10T04:38:38.688Z,54.4
2023-01-10T04:40:38.664Z,54.4
2023-01-10T04:41:38.691Z,54.7
2023-01-10T04:42:38.666Z,54.7
2023-01-10T04:43:38.667Z,54.4
2023-01-10T04:44:38.668Z,54
2023-01-10T04:45:38.684Z,53.8
2023-01-10T04:46:38.675Z,54
2023-01-10T04:47:38.675Z,54.2
2023-01-10T04:48:38.675Z,54.3
2023-01-10T04:49:38.682Z,53.8
2023-01-10T04:51:38.670Z,54.8
2023-01-10T04:52:38.667Z,54.5
2023-01-10T04:53:38.679Z,54.4
2023-01-10T04:54:38.672Z,54.1
2023-01-10T04:55:38.663Z,53.8
2023-01-10T05:01:38.782Z,53.3
2023-01-10T05:02:38.823Z,53.4
2023-01-10T05:04:38.673Z,53.8
2023-01-10T05:05:38.696Z,53.8
2023-01-10T05:06:38.675Z,54
2023-01-10T05:07:38.665Z,53.6
2023-01-10T05:08:38.662Z,54.1
2023-01-10T05:09:38.668Z,54.3
2023-01-10T05:10:38.674Z,53.8
2023-01-10T05:12:38.726Z,53.5
2023-01-10T05:15:38.667Z,54
2023-01-10T05:17:38.667Z,54
2023-01-10T05:18:38.667Z,54
2023-01-10T05:19:38.669Z,54.1
2023-01-10T05:20:38.693Z,53.5
2023-01-10T05:21:38.675Z,54
2023-01-10T05:22:38.676Z,53.8
2023-01-10T05:23:38.670Z,53.6
2023-01-10T05:24:38.677Z,53.7
2023-01-10T05:25:38.672Z,54.1
2023-01-10T05:26:38.677Z,53.9
2023-01-10T05:28:38.686Z,53.5
2023-01-10T05:29:38.666Z,53.6
2023-01-10T05:30:38.678Z,53.5
2023-01-10T05:31:38.735Z,53.5
2023-01-10T05:32:38.676Z,53.9
2023-01-10T05:33:38.671Z,54.1
2023-01-10T05:34:38.669Z,54.2
2023-01-10T05:35:38.785Z,54
2023-01-10T05:36:38.670Z,53.7
2023-01-10T05:38:38.686Z,54.3
2023-01-10T05:39:38.676Z,54
2023-01-10T05:40:38.675Z,54
2023-01-10T05:42:38.711Z,53.6
2023-01-10T05:44:38.668Z,53.6
2023-01-10T05:45:38.760Z,53.7
2023-01-10T05:46:38.676Z,53.6
2023-01-10T05:48:38.686Z,53.5
2023-01-10T05:49:38.673Z,53.1
2023-01-10T05:50:38.668Z,53.4
2023-01-10T05:54:38.690Z,52.9
2023-01-10T06:01:38.681Z,53.1
2023-01-10T06:02:38.865Z,53.5
2023-01-10T06:03:38.685Z,53.5
2023-01-10T06:04:38.701Z,53.6
2023-01-10T06:05:38.672Z,54.2
2023-01-10T06:07:38.671Z,54.1
2023-01-10T06:08:38.682Z,53.9
2023-01-10T06:09:38.678Z,53.9
2023-01-10T06:10:40.664Z,53.6
2023-01-10T06:11:38.676Z,53.8
2023-01-10T06:12:38.673Z,53.5
2023-01-10T06:13:38.675Z,53.6
2023-01-10T06:14:38.702Z,54
2023-01-10T06:16:38.678Z,53.2
2023-01-10T06:17:38.672Z,53.5
2023-01-10T06:18:38.683Z,53.8
2023-01-10T06:20:38.677Z,53.7
2023-01-10T06:22:38.672Z,53.6
2023-01-10T06:23:38.671Z,53.7
2023-01-10T06:24:38.673Z,54
2023-01-10T06:25:38.673Z,53.9
2023-01-10T06:26:38.678Z,54
2023-01-10T06:27:38.670Z,54.1
2023-01-10T06:28:38.675Z,54.5
2023-01-10T06:29:38.687Z,54.6
2023-01-10T06:30:38.673Z,54.8
2023-01-10T06:31:38.856Z,54
2023-01-10T06:32:38.670Z,54.5
2023-01-10T06:33:38.674Z,54.5
2023-01-10T06:34:38.680Z,54.2
2023-01-10T06:35:38.679Z,53.6
2023-01-10T06:36:38.681Z,53.2
2023-01-10T06:37:38.677Z,53.2
2023-01-10T06:38:38.688Z,53
2023-01-10T06:39:38.756Z,53.6
2023-01-10T06:40:38.680Z,53.8
2023-01-10T06:41:38.677Z,54.2
2023-01-10T06:43:38.689Z,53.7
2023-01-10T06:44:38.691Z,54.3
2023-01-10T06:45:38.775Z,53.6
2023-01-10T06:46:38.673Z,53.6
2023-01-10T06:48:38.676Z,53
2023-01-10T06:52:38.678Z,54
2023-01-10T06:54:38.685Z,54.3
2023-01-10T06:56:38.681Z,54.4
2023-01-10T06:57:38.802Z,53.9
2023-01-10T06:58:38.756Z,54.5
2023-01-10T06:59:38.713Z,54.6
2023-01-10T07:00:38.686Z,55.6
2023-01-10T07:01:38.986Z,54.6
2023-01-10T07:02:38.675Z,54.8
2023-01-10T07:03:38.778Z,54.5
2023-01-10T07:04:38.685Z,54.2
2023-01-10T07:05:38.684Z,54.1
2023-01-10T07:06:38.692Z,54.1
2023-01-10T07:07:38.686Z,53.8
2023-01-10T07:08:38.716Z,54.5
2023-01-10T07:09:38.687Z,54.6
2023-01-10T07:10:38.887Z,54.4
2023-01-10T07:11:38.681Z,54.3
2023-01-10T07:12:38.675Z,53.8
2023-01-10T07:13:38.680Z,54
2023-01-10T07:14:38.691Z,54.7
2023-01-10T07:15:38.681Z,54.5
2023-01-10T07:20:38.683Z,55
2023-01-10T07:21:38.689Z,55.3
2023-01-10T07:22:38.675Z,54.8
2023-01-10T07:23:38.703Z,54.5
2023-01-10T07:26:38.678Z,54.4
2023-01-10T07:27:38.682Z,54.4
2023-01-10T07:28:38.679Z,54
2023-01-10T07:29:38.678Z,54.9
2023-01-10T07:31:38.735Z,55.2
2023-01-10T07:32:38.677Z,55
2023-01-10T07:33:38.678Z,54.7
2023-01-10T07:34:38.684Z,54.5
2023-01-10T07:35:38.679Z,54.5
2023-01-10T07:36:39.555Z,54.5
2023-01-10T07:37:38.688Z,54.4
2023-01-10T07:38:38.690Z,54.6
2023-01-10T07:39:38.678Z,54.9
2023-01-10T07:40:38.677Z,55.1
2023-01-10T07:41:38.686Z,55
2023-01-10T07:42:38.682Z,55.3
2023-01-10T07:44:38.678Z,54.6
2023-01-10T07:45:38.688Z,54.1
2023-01-10T07:46:38.759Z,54.4
2023-01-10T07:47:38.712Z,54.1
2023-01-10T07:48:38.682Z,54.4
2023-01-10T07:49:38.678Z,54.5
2023-01-10T07:50:38.684Z,54.6
2023-01-10T07:51:38.683Z,54.8
2023-01-10T07:52:38.670Z,54.3
2023-01-10T07:58:38.687Z,54.1
2023-01-10T08:00:38.677Z,53.8
2023-01-10T08:02:38.889Z,54.1
2023-01-10T08:03:38.812Z,54.5
2023-01-10T08:04:38.685Z,54.7
2023-01-10T08:05:38.705Z,54.9
2023-01-10T08:06:38.687Z,53.9
2023-01-10T08:07:38.684Z,53.8
2023-01-10T08:08:38.694Z,54
2023-01-10T08:09:38.692Z,54.1
2023-01-10T08:10:38.689Z,54.3
2023-01-10T08:11:41.379Z,54.2
2023-01-10T08:12:38.688Z,53.8
2023-01-10T08:13:38.706Z,53.4
2023-01-10T08:14:38.774Z,53.7
2023-01-10T08:16:38.698Z,54
2023-01-10T08:17:38.685Z,54.6
2023-01-10T08:18:38.739Z,53.9
2023-01-10T08:19:38.692Z,53.9
2023-01-10T08:20:38.698Z,54.1
2023-01-10T08:21:38.686Z,53.8
2023-01-10T08:22:38.689Z,54.3
2023-01-10T08:23:38.744Z,54.2
2023-01-10T08:24:38.688Z,54.4
2023-01-10T08:25:39.641Z,54
2023-01-10T08:26:38.694Z,54.2
2023-01-10T08:27:38.687Z,54.1
2023-01-10T08:28:38.753Z,54.2
2023-01-10T08:29:38.695Z,54.3
2023-01-10T08:30:38.688Z,54.3
2023-01-10T08:31:38.763Z,53.9
2023-01-10T08:32:38.694Z,54.1
2023-01-10T08:33:38.692Z,54.4
2023-01-10T08:34:38.696Z,54.2
2023-01-10T08:35:38.700Z,54.5
2023-01-10T08:37:38.682Z,54.6
2023-01-10T08:38:38.688Z,54.7
2023-01-10T08:39:38.690Z,54.5
2023-01-10T08:40:38.725Z,54.9
2023-01-10T08:41:38.689Z,54.7
2023-01-10T08:43:38.690Z,54.2
2023-01-10T08:44:38.706Z,54
2023-01-10T08:45:38.696Z,53.9
2023-01-10T08:46:38.795Z,53.8
2023-01-10T08:48:38.760Z,54.2
2023-01-10T08:49:38.712Z,54.4
2023-01-10T08:54:38.709Z,54.7
2023-01-10T08:56:38.689Z,54.2
2023-01-10T08:57:38.689Z,54.2
2023-01-10T08:58:38.686Z,53.9
2023-01-10T08:59:38.690Z,54.5
2023-01-10T09:00:38.698Z,54
2023-01-10T09:03:38.684Z,53.7
2023-01-10T09:05:38.690Z,53.6
2023-01-10T09:06:38.759Z,53.8
2023-01-10T09:07:39.123Z,53.5
2023-01-10T09:12:38.700Z,53.7
2023-01-10T09:13:38.732Z,53.7
2023-01-10T09:14:38.684Z,54.2
2023-01-10T09:15:38.694Z,53.8
2023-01-10T09:16:38.690Z,53.7
2023-01-10T09:17:38.689Z,53.8
2023-01-10T09:18:38.694Z,53.7
2023-01-10T09:19:38.689Z,53.9
2023-01-10T09:20:38.740Z,54.4
2023-01-10T09:21:38.692Z,53.8
2023-01-10T09:22:38.693Z,53.6
2023-01-10T09:23:38.689Z,53.9
2023-01-10T09:27:38.688Z,53.8
2023-01-10T09:28:38.684Z,53.3
2023-01-10T09:29:38.688Z,53.2
2023-01-10T09:30:38.684Z,53.1
2023-01-10T09:31:38.721Z,53.2
2023-01-10T09:32:38.743Z,53.7
2023-01-10T09:33:46.617Z,54
2023-01-10T09:34:38.692Z,53.9
2023-01-10T09:35:38.689Z,53.6
2023-01-10T09:40:38.704Z,53.9
2023-01-10T09:41:38.705Z,53.8
2023-01-10T09:42:38.698Z,54
2023-01-10T09:43:38.691Z,53.9
2023-01-10T09:44:38.706Z,53.6
2023-01-10T09:45:38.693Z,53.6
2023-01-10T09:46:39.360Z,53.9
2023-01-10T09:47:38.689Z,53.7
2023-01-10T09:51:38.720Z,54
2023-01-10T09:52:38.694Z,54
2023-01-10T09:53:38.714Z,53.3
2023-01-10T09:54:38.693Z,54
2023-01-10T09:55:38.714Z,53.9
2023-01-10T09:56:38.692Z,53.6
2023-01-10T09:57:38.700Z,54.1
2023-01-10T09:58:38.690Z,54.1
2023-01-10T09:59:38.695Z,53.7
2023-01-10T10:00:40.184Z,53.6
2023-01-10T10:01:38.689Z,53.1
2023-01-10T10:06:38.689Z,53.5
2023-01-10T10:07:45.128Z,53.5
2023-01-10T10:08:38.694Z,53.2
2023-01-10T10:09:38.717Z,53.1
2023-01-10T10:10:38.700Z,53
2023-01-10T10:11:38.702Z,53
2023-01-10T10:12:38.699Z,53.4
2023-01-10T10:13:38.695Z,53.7
2023-01-10T10:14:38.689Z,53.3
2023-01-10T10:15:38.693Z,53.2
2023-01-10T10:16:38.791Z,52.8
2023-01-10T10:17:38.701Z,52.8
2023-01-10T10:18:38.696Z,53
2023-01-10T10:19:38.702Z,53.1
2023-01-10T10:20:38.724Z,53.1
2023-01-10T10:24:38.749Z,52.6
2023-01-10T10:26:38.733Z,52.9
2023-01-10T10:27:38.689Z,52.3
2023-01-10T10:28:46.560Z,52.6
2023-01-10T10:29:38.706Z,52.6
2023-01-10T10:33:38.699Z,52
2023-01-10T10:34:38.733Z,52.4
2023-01-10T10:35:38.696Z,52.4
2023-01-10T10:36:38.717Z,52
2023-01-10T10:37:38.700Z,52.3
2023-01-10T10:39:38.697Z,51.7
2023-01-10T10:40:38.703Z,51.4
2023-01-10T10:41:38.701Z,51.4
2023-01-10T10:45:38.753Z,51.4
2023-01-10T10:47:38.704Z,51.9
2023-01-10T10:48:38.723Z,52.3
2023-01-10T10:49:38.712Z,52.1
2023-01-10T10:50:38.697Z,52.2
2023-01-10T10:52:38.713Z,52.3
2023-01-10T10:57:43.473Z,51.2
2023-01-10T10:58:38.704Z,51.2
2023-01-10T10:59:38.705Z,51.8
2023-01-10T11:00:38.728Z,51.6
2023-01-10T11:03:38.697Z,51.7
2023-01-10T11:04:38.862Z,51.3
2023-01-10T11:05:38.701Z,51.2
2023-01-10T11:08:38.704Z,51.2
2023-01-10T11:12:38.704Z,51.2
2023-01-10T11:13:38.695Z,51.5
2023-01-10T11:14:38.705Z,51.1
2023-01-10T11:15:38.701Z,51.4
2023-01-10T11:16:38.757Z,51.5
2023-01-10T11:17:38.704Z,51.6
2023-01-10T11:18:38.694Z,51.6
2023-01-10T11:19:38.701Z,51.2
2023-01-10T11:20:38.701Z,51.3
2023-01-10T11:24:38.727Z,51.1
2023-01-10T11:27:38.703Z,50.7
2023-01-10T11:28:38.715Z,50.6
2023-01-10T11:29:38.701Z,51.4
2023-01-10T11:30:38.694Z,51
2023-01-10T11:31:38.748Z,51.2
2023-01-10T11:32:38.733Z,50.4
2023-01-10T11:33:38.693Z,50
2023-01-10T11:34:38.699Z,50.2
2023-01-10T11:35:38.734Z,50.2
2023-01-10T11:36:38.706Z,50.1
2023-01-10T11:41:38.711Z,49.5
2023-01-10T11:42:38.695Z,49.3
2023-01-10T11:43:38.703Z,49.6
2023-01-10T11:44:38.708Z,49.4
2023-01-10T11:45:38.749Z,49.1
2023-01-10T11:46:38.713Z,48.9
2023-01-10T11:47:45.240Z,49.2
2023-01-10T11:49:38.773Z,48.8
2023-01-10T11:50:38.705Z,48.9
2023-01-10T11:51:38.704Z,48.9
2023-01-10T11:52:38.697Z,49.7
2023-01-10T11:53:38.706Z,49.4
2023-01-10T11:54:38.697Z,49.5
2023-01-10T11:55:38.728Z,49.2
2023-01-10T11:56:38.708Z,49.4
2023-01-10T11:57:38.714Z,49.4
2023-01-10T12:03:38.725Z,49.8
2023-01-10T12:04:38.698Z,49.9
2023-01-10T12:05:38.733Z,49.8
2023-01-10T12:06:38.711Z,50.1
2023-01-10T12:07:38.711Z,50.5
2023-01-10T12:08:38.711Z,49.6
2023-01-10T12:09:38.853Z,49.6
2023-01-10T12:13:38.706Z,49.7
2023-01-10T12:14:38.702Z,49.7
2023-01-10T12:15:38.709Z,49.2
2023-01-10T12:16:38.708Z,49.1
2023-01-10T12:18:38.706Z,48.8
2023-01-10T12:19:38.712Z,49.3
2023-01-10T12:20:38.704Z,49.1
2023-01-10T12:21:38.712Z,48.9
2023-01-10T12:25:38.704Z,49.5
2023-01-10T12:26:38.759Z,49.5
2023-01-10T12:27:38.702Z,49.8
2023-01-10T12:28:38.704Z,49.3
2023-01-10T12:29:38.706Z,48.7
2023-01-10T12:31:38.710Z,48.7
2023-01-10T12:32:38.710Z,48.9
2023-01-10T12:36:38.793Z,48.7
2023-01-10T12:37:38.712Z,48.8
2023-01-10T12:39:38.712Z,48.8
2023-01-10T12:40:38.710Z,48.7
2023-01-10T12:41:38.707Z,49.2
2023-01-10T12:49:38.705Z,47.9
2023-01-10T12:50:38.707Z,47.9
2023-01-10T12:51:38.783Z,48
2023-01-10T12:52:38.721Z,47.8
2023-01-10T12:53:38.711Z,47.8
2023-01-10T12:54:38.707Z,47.8
2023-01-10T12:55:38.722Z,47.9
2023-01-10T12:56:38.703Z,47.8
2023-01-10T12:57:39.699Z,47.6
2023-01-10T12:58:38.728Z,47.6
2023-01-10T12:59:38.707Z,47.4
2023-01-10T13:09:38.730Z,47.8
2023-01-10T13:10:38.705Z,47.7
2023-01-10T13:11:38.709Z,47.5
2023-01-10T13:12:38.721Z,47.3
2023-01-10T13:13:38.715Z,47.3
2023-01-10T13:14:38.708Z,47.5
2023-01-10T13:15:38.810Z,47.1
2023-01-10T13:16:38.756Z,47.5
2023-01-10T13:17:38.710Z,47
2023-01-10T13:22:38.705Z,47.1
2023-01-10T13:23:38.705Z,47.1
2023-01-10T13:24:38.715Z,47
2023-01-10T13:25:38.749Z,47.2
2023-01-10T13:26:38.714Z,46.8
2023-01-10T13:27:38.710Z,47.2
2023-01-10T13:28:38.729Z,47.8
2023-01-10T13:29:38.707Z,47.4
2023-01-10T13:31:38.724Z,46.8
2023-01-10T13:32:38.733Z,47.1
2023-01-10T13:33:38.716Z,47.3
2023-01-10T13:34:38.718Z,47.4
2023-01-10T13:35:38.712Z,47.2
2023-01-10T13:36:38.723Z,47.1
2023-01-10T13:37:38.714Z,46.9
2023-01-10T13:38:38.716Z,47
2023-01-10T13:39:38.712Z,46.9
2023-01-10T13:40:38.709Z,46.9
2023-01-10T13:41:38.703Z,46.8
2023-01-10T13:46:38.813Z,46.7
2023-01-10T13:47:38.720Z,46.7
2023-01-10T13:48:38.715Z,46.5
2023-01-10T13:49:38.717Z,46.7
2023-01-10T13:50:38.723Z,46.3
2023-01-10T13:51:38.714Z,46.2
2023-01-10T13:52:38.720Z,46.5
2023-01-10T13:59:38.739Z,45.9
2023-01-10T14:00:38.711Z,46
2023-01-10T14:01:38.856Z,45.8
2023-01-10T14:02:38.715Z,46.2
2023-01-10T14:03:38.727Z,46.2
2023-01-10T14:04:38.791Z,46.5
2023-01-10T14:05:38.775Z,46.3
2023-01-10T14:07:38.710Z,45.7
2023-01-10T14:08:38.709Z,45.6
2023-01-10T14:11:38.728Z,46
2023-01-10T14:16:38.719Z,46.1
2023-01-10T14:17:38.723Z,45.9
2023-01-10T14:18:38.729Z,45.9
2023-01-10T14:19:38.717Z,45.7
2023-01-10T14:20:38.727Z,45.6
2023-01-10T14:21:38.719Z,45.6
2023-01-10T14:26:38.717Z,45.7
2023-01-10T14:27:38.725Z,46.6
2023-01-10T14:28:38.720Z,45.6
2023-01-10T14:29:38.719Z,44.9
2023-01-10T14:30:38.718Z,45.4
2023-01-10T14:31:38.721Z,45.3
2023-01-10T14:32:38.732Z,45.6
2023-01-10T14:33:38.725Z,45.4
2023-01-10T14:37:38.730Z,45.5
2023-01-10T14:38:38.716Z,45.3
2023-01-10T14:39:38.719Z,45.6
2023-01-10T14:40:38.722Z,45.7
2023-01-10T14:41:38.749Z,45.5
2023-01-10T14:42:38.722Z,45.1
2023-01-10T14:43:38.723Z,45.5
2023-01-10T14:44:38.731Z,45.5
2023-01-10T14:45:38.720Z,45.1
2023-01-10T14:46:38.807Z,45.6
2023-01-10T14:47:38.720Z,45.5
2023-01-10T14:49:38.711Z,45.3
2023-01-10T14:50:38.728Z,45.3
2023-01-10T14:51:38.728Z,44.8
2023-01-10T14:53:38.723Z,45.1
2023-01-10T14:54:38.736Z,45.2
2023-01-10T14:55:38.839Z,45.2
2023-01-10T14:56:38.766Z,45.4
2023-01-10T15:13:38.756Z,44.9
2023-01-10T15:14:38.761Z,44.9
2023-01-10T15:15:38.748Z,44.9
2023-01-10T15:16:38.724Z,44.8
2023-01-10T15:17:38.766Z,45
2023-01-10T15:18:38.726Z,45.1
2023-01-10T15:19:38.732Z,44.9
2023-01-10T15:20:38.715Z,44.8
2023-01-10T15:21:38.731Z,45.3
2023-01-10T15:24:38.726Z,44.9
2023-01-10T15:55:39.403Z,45.2
2023-01-10T16:04:38.792Z,46.4
